createdAt,value
2022-10-19T00:06:12.832Z,68.0
2022-10-19T00:08:53.444Z,68.0
2022-10-19T00:11:24.031Z,68.0
2022-10-19T00:13:54.656Z,68.0
2022-10-19T00:16:25.238Z,68.0
2022-10-19T00:18:55.831Z,68.0
2022-10-19T00:21:46.513Z,68.0
2022-10-19T00:24:17.189Z,68.0
2022-10-19T00:26:47.784Z,68.0
2022-10-19T00:29:18.510Z,68.0
2022-10-19T00:31:49.096Z,68.0
2022-10-19T00:34:19.703Z,68.0
2022-10-19T00:37:00.319Z,68.0
2022-10-19T00:39:30.918Z,68.0
2022-10-19T00:44:31.692Z,68.0
2022-10-19T00:47:02.302Z,68.0
2022-10-19T00:49:32.906Z,68.0
2022-10-19T00:52:13.501Z,68.0
2022-10-19T00:54:44.099Z,68.0
2022-10-19T00:57:14.691Z,68.0
2022-10-19T00:59:45.280Z,68.0
2022-10-19T01:02:15.873Z,68.0
2022-10-19T01:04:46.467Z,68.0
2022-10-19T01:07:27.057Z,68.0
2022-10-19T01:09:58.177Z,68.0
2022-10-19T01:12:28.776Z,68.0
2022-10-19T01:14:59.380Z,68.0
2022-10-19T01:17:30.012Z,68.0
2022-10-19T01:20:00.649Z,68.0
2022-10-19T01:25:11.407Z,68.0
2022-10-19T01:27:42.482Z,68.0
2022-10-19T01:30:13.092Z,68.0
2022-10-19T01:32:43.680Z,68.0
2022-10-19T01:35:14.269Z,68.0
2022-10-19T01:37:54.882Z,68.0
2022-10-19T01:40:25.494Z,68.0
2022-10-19T01:42:56.180Z,68.0
2022-10-19T01:45:26.791Z,68.0
2022-10-19T01:47:57.390Z,68.0
2022-10-19T01:50:38.003Z,68.0
2022-10-19T01:53:08.580Z,68.0
2022-10-19T01:55:39.182Z,68.0
2022-10-19T01:58:09.820Z,68.0
2022-10-19T02:00:40.531Z,68.0
2022-10-19T02:05:51.547Z,68.0
2022-10-19T02:08:22.155Z,68.0
2022-10-19T02:10:52.769Z,68.0
2022-10-19T02:13:23.497Z,68.0
2022-10-19T02:15:54.211Z,68.0
2022-10-19T02:18:24.765Z,68.0
2022-10-19T02:21:05.350Z,68.0
2022-10-19T02:23:35.954Z,68.0
2022-10-19T02:26:09.733Z,68.0
2022-10-19T02:28:40.312Z,68.0
2022-10-19T02:31:10.908Z,69.0
2022-10-19T02:36:21.654Z,69.0
2022-10-19T02:38:52.790Z,69.0
2022-10-19T02:41:23.362Z,69.0
2022-10-19T02:46:24.108Z,69.0
2022-10-19T02:49:04.803Z,69.0
2022-10-19T02:51:35.378Z,69.0
2022-10-19T02:54:06.157Z,69.0
2022-10-19T02:56:36.721Z,69.0
2022-10-19T02:59:07.309Z,69.0
2022-10-19T03:01:37.975Z,69.0
2022-10-19T03:04:18.582Z,69.0
2022-10-19T03:06:49.164Z,69.0
2022-10-19T03:09:19.761Z,69.0
2022-10-19T03:11:50.357Z,69.0
2022-10-19T03:14:20.946Z,69.0
2022-10-19T03:16:51.538Z,69.0
2022-10-19T03:19:32.122Z,69.0
2022-10-19T03:22:02.716Z,69.0
2022-10-19T03:27:03.472Z,69.0
2022-10-19T03:29:34.078Z,69.0
2022-10-19T03:32:04.659Z,69.0
2022-10-19T03:34:55.255Z,69.0
2022-10-19T03:37:25.844Z,69.0
2022-10-19T03:39:56.926Z,69.0
2022-10-19T03:42:27.518Z,69.0
2022-10-19T03:44:58.107Z,69.0
2022-10-19T03:47:38.725Z,69.0
2022-10-19T03:50:09.317Z,69.0
2022-10-19T03:52:39.910Z,69.0
2022-10-19T03:55:10.594Z,69.0
2022-10-19T03:57:41.369Z,69.0
2022-10-19T04:00:12.111Z,69.0
2022-10-19T04:02:52.734Z,69.0
2022-10-19T04:07:53.464Z,69.0
2022-10-19T04:10:24.055Z,69.0
2022-10-19T04:12:54.641Z,69.0
2022-10-19T04:15:25.251Z,69.0
2022-10-19T04:18:05.845Z,69.0
2022-10-19T04:20:36.394Z,69.0
2022-10-19T04:23:07.041Z,69.0
2022-10-19T04:25:37.683Z,69.0
2022-10-19T04:28:08.308Z,69.0
2022-10-19T04:30:38.905Z,69.0
2022-10-19T04:33:19.508Z,69.0
2022-10-19T04:35:50.093Z,69.0
2022-10-19T04:38:20.683Z,69.0
2022-10-19T04:40:51.241Z,69.0
2022-10-19T04:43:21.835Z,69.0
2022-10-19T04:48:32.581Z,69.0
2022-10-19T04:51:03.178Z,70.0
2022-10-19T04:53:34.796Z,69.0
2022-10-19T04:56:05.371Z,70.0
2022-10-19T04:58:35.965Z,70.0
2022-10-19T05:01:16.717Z,70.0
2022-10-19T05:03:47.366Z,70.0
2022-10-19T05:06:17.957Z,70.0
2022-10-19T05:08:48.567Z,70.0
2022-10-19T05:11:19.156Z,70.0
2022-10-19T05:13:49.752Z,70.0
2022-10-19T05:16:30.366Z,70.0
2022-10-19T05:21:31.106Z,70.0
2022-10-19T05:24:01.702Z,70.0
2022-10-19T05:29:02.505Z,70.0
2022-10-19T05:31:43.192Z,70.0
2022-10-19T05:34:13.883Z,70.0
2022-10-19T05:36:44.469Z,70.0
2022-10-19T05:39:15.081Z,70.0
2022-10-19T05:41:45.652Z,70.0
2022-10-19T05:44:16.238Z,70.0
2022-10-19T05:46:56.877Z,70.0
2022-10-19T05:51:57.607Z,70.0
2022-10-19T05:54:28.576Z,70.0
2022-10-19T05:56:59.440Z,70.0
2022-10-19T05:59:40.045Z,70.0
2022-10-19T06:02:10.729Z,70.0
2022-10-19T06:04:41.380Z,70.0
2022-10-19T06:09:52.146Z,70.0
2022-10-19T06:12:24.221Z,70.0
2022-10-19T06:14:56.789Z,70.0
2022-10-19T06:17:27.380Z,70.0
2022-10-19T06:19:57.944Z,70.0
2022-10-19T06:22:28.537Z,70.0
2022-10-19T06:24:59.138Z,70.0
2022-10-19T06:27:29.818Z,70.0
2022-10-19T06:30:10.478Z,70.0
2022-10-19T06:32:41.105Z,70.0
2022-10-19T06:35:11.892Z,70.0
2022-10-19T06:37:42.827Z,70.0
2022-10-19T06:40:17.315Z,70.0
2022-10-19T06:42:48.167Z,70.0
2022-10-19T06:45:32.253Z,70.0
2022-10-19T06:50:25.544Z,70.0
2022-10-19T06:52:56.152Z,70.0
2022-10-19T06:55:26.753Z,70.0
2022-10-19T06:58:07.343Z,70.0
2022-10-19T07:00:37.973Z,70.0
2022-10-19T07:03:08.690Z,71.0
2022-10-19T07:05:49.296Z,70.0
2022-10-19T07:08:19.927Z,70.0
2022-10-19T07:10:50.557Z,70.0
2022-10-19T07:13:31.204Z,71.0
2022-10-19T07:16:01.825Z,70.0
2022-10-19T07:18:28.242Z,70.0
2022-10-19T07:20:58.808Z,71.0
2022-10-19T07:23:29.408Z,71.0
2022-10-19T07:26:00.001Z,70.0
2022-10-19T07:31:10.756Z,70.0
2022-10-19T07:33:41.328Z,70.0
2022-10-19T07:36:11.923Z,70.0
2022-10-19T07:38:42.521Z,70.0
2022-10-19T07:41:13.107Z,70.0
2022-10-19T07:43:53.708Z,70.0
2022-10-19T07:46:24.287Z,70.0
2022-10-19T07:48:54.912Z,70.0
2022-10-19T07:51:25.576Z,70.0
2022-10-19T07:53:56.213Z,70.0
2022-10-19T07:56:26.787Z,70.0
2022-10-19T07:59:07.395Z,70.0
2022-10-19T08:01:38.048Z,70.0
2022-10-19T08:06:38.879Z,70.0
2022-10-19T08:11:49.669Z,70.0
2022-10-19T08:14:30.280Z,70.0
2022-10-19T08:17:00.874Z,70.0
2022-10-19T08:19:31.464Z,70.0
2022-10-19T08:22:02.040Z,70.0
2022-10-19T08:24:32.652Z,70.0
2022-10-19T08:27:13.268Z,69.0
2022-10-19T08:29:43.919Z,69.0
2022-10-19T08:32:14.868Z,69.0
2022-10-19T08:34:45.449Z,69.0
2022-10-19T08:37:44.032Z,69.0
2022-10-19T08:39:45.190Z,68.0
2022-10-19T08:42:25.789Z,69.0
2022-10-19T08:44:56.837Z,68.0
2022-10-19T08:47:31.250Z,68.0
2022-10-19T08:52:34.552Z,68.0
2022-10-19T08:54:55.344Z,67.0
2022-10-19T08:57:36.277Z,67.0
2022-10-19T09:00:07.072Z,67.0
2022-10-19T09:02:37.705Z,67.0
2022-10-19T09:05:08.305Z,67.0
2022-10-19T09:07:38.892Z,66.0
2022-10-19T09:10:09.490Z,66.0
2022-10-19T09:12:51.978Z,66.0
2022-10-19T09:15:25.589Z,65.0
2022-10-19T09:17:56.184Z,65.0
2022-10-19T09:20:26.774Z,65.0
2022-10-19T09:22:57.351Z,64.0
2022-10-19T09:25:33.464Z,64.0
2022-10-19T09:28:04.123Z,63.0
2022-10-19T09:33:04.865Z,63.0
2022-10-19T09:35:36.130Z,63.0
2022-10-19T09:38:06.777Z,62.0
2022-10-19T09:40:47.383Z,62.0
2022-10-19T09:43:17.991Z,62.0
2022-10-19T09:45:48.560Z,61.0
2022-10-19T09:48:29.172Z,61.0
2022-10-19T09:50:59.755Z,61.0
2022-10-19T09:53:30.362Z,61.0
2022-10-19T09:56:10.952Z,61.0
2022-10-19T09:58:43.489Z,60.0
2022-10-19T10:01:04.091Z,60.0
2022-10-19T10:03:34.699Z,60.0
2022-10-19T10:06:05.284Z,60.0
2022-10-19T10:08:36.165Z,60.0
2022-10-19T10:13:47.044Z,60.0
2022-10-19T10:16:17.618Z,60.0
2022-10-19T10:18:58.214Z,60.0
2022-10-19T10:21:33.081Z,60.0
2022-10-19T10:24:03.727Z,60.0
2022-10-19T10:29:09.445Z,60.0
2022-10-19T10:31:40.005Z,60.0
2022-10-19T10:34:28.550Z,60.0
2022-10-19T10:36:40.973Z,60.0
2022-10-19T10:39:21.599Z,60.0
2022-10-19T10:41:52.223Z,59.0
2022-10-19T10:44:22.809Z,59.0
2022-10-19T10:46:53.379Z,59.0
2022-10-19T10:54:34.378Z,59.0
2022-10-19T10:57:06.543Z,59.0
2022-10-19T10:59:39.353Z,59.0
2022-10-19T11:02:02.321Z,59.0
2022-10-19T11:04:33.143Z,59.0
2022-10-19T11:07:05.193Z,59.0
2022-10-19T11:09:45.812Z,59.0
2022-10-19T11:12:16.411Z,59.0
2022-10-19T11:14:47.037Z,59.0
2022-10-19T11:17:17.633Z,59.0
2022-10-19T11:19:48.213Z,59.0
2022-10-19T11:22:20.280Z,59.0
2022-10-19T11:25:03.439Z,59.0
2022-10-19T11:27:34.316Z,59.0
2022-10-19T11:30:05.126Z,59.0
2022-10-19T11:35:05.866Z,59.0
2022-10-19T11:38:17.912Z,59.0
2022-10-19T11:40:22.204Z,59.0
2022-10-19T11:42:53.036Z,59.0
2022-10-19T11:45:23.637Z,59.0
2022-10-19T11:47:54.229Z,59.0
2022-10-19T11:50:26.026Z,59.0
2022-10-19T11:52:58.916Z,59.0
2022-10-19T11:55:29.521Z,59.0
2022-10-19T11:58:00.087Z,59.0
2022-10-19T12:00:48.467Z,60.0
2022-10-19T12:03:13.671Z,60.0
2022-10-19T12:05:34.297Z,60.0
2022-10-19T12:08:14.927Z,60.0
2022-10-19T12:10:45.744Z,60.0
2022-10-19T12:15:46.493Z,60.0
2022-10-19T12:18:17.089Z,60.0
2022-10-19T12:20:47.687Z,60.0
2022-10-19T12:23:28.285Z,60.0
2022-10-19T12:25:58.870Z,60.0
2022-10-19T12:28:29.585Z,59.0
2022-10-19T12:31:00.138Z,59.0
2022-10-19T12:33:30.722Z,59.0
2022-10-19T12:36:11.315Z,59.0
2022-10-19T12:38:43.926Z,59.0
2022-10-19T12:41:20.549Z,60.0
2022-10-19T12:43:51.108Z,60.0
2022-10-19T12:46:21.689Z,60.0
2022-10-19T12:48:52.293Z,60.0
2022-10-19T12:51:32.906Z,60.0
2022-10-19T12:56:33.665Z,60.0
2022-10-19T12:59:04.266Z,60.0
2022-10-19T13:01:34.851Z,60.0
2022-10-19T13:04:05.466Z,61.0
2022-10-19T13:06:46.071Z,61.0
2022-10-19T13:09:16.806Z,61.0
2022-10-19T13:11:47.377Z,61.0
2022-10-19T13:14:17.991Z,61.0
2022-10-19T13:16:48.577Z,61.0
2022-10-19T13:19:19.306Z,61.0
2022-10-19T13:21:59.898Z,61.0
2022-10-19T13:24:30.577Z,61.0
2022-10-19T13:27:01.294Z,61.0
2022-10-19T13:32:03.919Z,62.0
2022-10-19T13:39:45.384Z,62.0
2022-10-19T13:42:15.968Z,62.0
2022-10-19T13:44:46.569Z,62.0
2022-10-19T13:47:17.160Z,62.0
2022-10-19T13:49:57.785Z,61.0
2022-10-19T13:52:28.356Z,61.0
2022-10-19T13:54:58.942Z,61.0
2022-10-19T13:57:29.515Z,61.0
2022-10-19T14:00:00.113Z,61.0
2022-10-19T14:02:30.736Z,62.0
2022-10-19T14:05:11.340Z,62.0
2022-10-19T14:07:42.281Z,62.0
2022-10-19T14:10:12.886Z,62.0
2022-10-19T14:12:43.344Z,62.0
2022-10-19T14:17:44.839Z,62.0
2022-10-19T14:20:25.418Z,62.0
2022-10-19T14:22:56.000Z,62.0
2022-10-19T14:25:26.641Z,62.0
2022-10-19T14:27:57.255Z,62.0
2022-10-19T14:30:27.846Z,62.0
2022-10-19T14:33:01.102Z,61.0
2022-10-19T14:35:43.024Z,61.0
2022-10-19T14:38:13.620Z,62.0
2022-10-19T14:40:44.236Z,61.0
2022-10-19T14:43:15.359Z,61.0
2022-10-19T14:45:45.961Z,61.0
2022-10-19T14:48:26.547Z,61.0
2022-10-19T14:50:57.155Z,61.0
2022-10-19T14:53:27.774Z,61.0
2022-10-19T14:58:28.553Z,62.0
2022-10-19T15:00:59.347Z,61.0
2022-10-19T15:03:41.448Z,62.0
2022-10-19T15:06:14.152Z,62.0
2022-10-19T15:08:44.957Z,62.0
2022-10-19T15:11:15.665Z,62.0
2022-10-19T15:13:46.275Z,62.0
2022-10-19T15:16:16.877Z,62.0
2022-10-19T15:18:59.956Z,63.0
2022-10-19T15:21:22.999Z,63.0
2022-10-19T15:23:54.050Z,63.0
2022-10-19T15:26:27.411Z,63.0
2022-10-19T15:28:58.023Z,63.0
2022-10-19T15:31:28.618Z,63.0
2022-10-19T15:34:09.202Z,63.0
2022-10-19T15:39:37.030Z,63.0
2022-10-19T15:41:38.629Z,63.0
2022-10-19T15:44:09.229Z,63.0
2022-10-19T15:46:39.869Z,63.0
2022-10-19T15:51:50.620Z,63.0
2022-10-19T15:54:21.240Z,63.0
2022-10-19T15:56:51.884Z,63.0
2022-10-19T15:59:22.524Z,64.0
2022-10-19T16:02:06.497Z,64.0
2022-10-19T16:04:37.093Z,64.0
2022-10-19T16:09:37.805Z,64.0
2022-10-19T16:12:08.393Z,64.0
2022-10-19T16:14:42.078Z,64.0
2022-10-19T16:22:22.959Z,64.0
2022-10-19T16:24:53.581Z,64.0
2022-10-19T16:27:24.172Z,64.0
2022-10-19T16:29:55.240Z,65.0
2022-10-19T16:32:35.850Z,65.0
2022-10-19T16:35:06.446Z,65.0
2022-10-19T16:37:37.348Z,65.0
2022-10-19T16:40:08.081Z,65.0
2022-10-19T16:42:40.865Z,65.0
2022-10-19T16:45:11.459Z,65.0
2022-10-19T16:47:52.053Z,65.0
2022-10-19T16:50:22.654Z,65.0
2022-10-19T16:52:53.386Z,65.0
2022-10-19T16:55:24.004Z,65.0
2022-10-19T17:00:34.753Z,65.0
2022-10-19T17:03:05.331Z,65.0
2022-10-19T17:05:35.957Z,65.0
2022-10-19T17:08:06.537Z,65.0
2022-10-19T17:10:37.192Z,65.0
2022-10-19T17:13:07.781Z,65.0
2022-10-19T17:15:53.354Z,65.0
2022-10-19T17:18:24.030Z,65.0
2022-10-19T17:20:55.519Z,65.0
2022-10-19T17:23:26.301Z,65.0
2022-10-19T17:25:56.878Z,65.0
2022-10-19T17:28:27.714Z,65.0
2022-10-19T17:31:08.470Z,65.0
2022-10-19T17:33:39.086Z,65.0
2022-10-19T17:36:09.666Z,65.0
2022-10-19T17:41:10.413Z,65.0
2022-10-19T17:43:41.020Z,65.0
2022-10-19T17:46:21.607Z,65.0
2022-10-19T17:48:52.190Z,65.0
2022-10-19T17:51:22.764Z,65.0
2022-10-19T17:53:53.348Z,65.0
2022-10-19T17:56:23.928Z,65.0
2022-10-19T17:58:54.538Z,65.0
2022-10-19T18:01:35.147Z,65.0
2022-10-19T18:04:05.755Z,65.0
2022-10-19T18:06:36.317Z,65.0
2022-10-19T18:09:07.025Z,65.0
2022-10-19T18:11:37.645Z,65.0
2022-10-19T18:14:18.254Z,65.0
2022-10-19T18:16:48.839Z,65.0
2022-10-19T18:21:49.611Z,65.0
2022-10-19T18:24:24.495Z,65.0
2022-10-19T18:26:55.113Z,65.0
2022-10-19T18:29:35.739Z,65.0
2022-10-19T18:37:07.224Z,65.0
2022-10-19T18:39:37.833Z,65.0
2022-10-19T18:42:08.435Z,65.0
2022-10-19T18:44:49.048Z,65.0
2022-10-19T18:47:19.637Z,65.0
2022-10-19T18:49:50.207Z,65.0
2022-10-19T18:52:20.800Z,65.0
2022-10-19T18:54:51.411Z,65.0
2022-10-19T18:57:21.998Z,65.0
2022-10-19T19:02:46.291Z,66.0
2022-10-19T19:05:07.697Z,66.0
2022-10-19T19:07:38.289Z,66.0
2022-10-19T19:10:08.893Z,66.0
2022-10-19T19:12:49.514Z,66.0
2022-10-19T19:15:20.097Z,66.0
2022-10-19T19:17:50.710Z,66.0
2022-10-19T19:20:21.300Z,66.0
2022-10-19T19:22:51.902Z,66.0
2022-10-19T19:25:22.494Z,66.0
2022-10-19T19:28:03.093Z,66.0
2022-10-19T19:30:33.705Z,66.0
2022-10-19T19:33:04.287Z,66.0
2022-10-19T19:35:34.869Z,66.0
2022-10-19T19:38:05.426Z,66.0
2022-10-19T19:43:16.186Z,66.0
2022-10-19T19:45:46.894Z,66.0
2022-10-19T19:48:17.482Z,66.0
2022-10-19T19:50:48.073Z,66.0
2022-10-19T19:53:18.681Z,65.0
2022-10-19T19:55:49.416Z,65.0
2022-10-19T19:58:30.075Z,65.0
2022-10-19T20:01:00.663Z,65.0
2022-10-19T20:03:33.173Z,65.0
2022-10-19T20:06:03.783Z,65.0
2022-10-19T20:08:34.509Z,65.0
2022-10-19T20:11:05.191Z,65.0
2022-10-19T20:13:45.857Z,65.0
2022-10-19T20:16:16.581Z,65.0
2022-10-19T20:18:49.891Z,65.0
2022-10-19T20:23:50.631Z,66.0
2022-10-19T20:26:31.238Z,66.0
2022-10-19T20:29:01.851Z,66.0
2022-10-19T20:31:32.537Z,66.0
2022-10-19T20:34:03.134Z,66.0
2022-10-19T20:36:33.716Z,65.0
2022-10-19T20:39:04.328Z,65.0
2022-10-19T20:41:44.948Z,66.0
2022-10-19T20:44:15.570Z,66.0
2022-10-19T20:46:46.144Z,65.0
2022-10-19T20:49:16.721Z,65.0
2022-10-19T20:51:47.306Z,66.0
2022-10-19T20:54:17.938Z,65.0
2022-10-19T20:56:58.505Z,66.0
2022-10-19T20:59:29.111Z,66.0
2022-10-19T21:04:29.833Z,66.0
2022-10-19T21:07:00.428Z,66.0
2022-10-19T21:09:31.028Z,66.0
2022-10-19T21:12:11.631Z,66.0
2022-10-19T21:14:42.273Z,66.0
2022-10-19T21:17:12.864Z,66.0
2022-10-19T21:19:43.526Z,66.0
2022-10-19T21:22:17.834Z,66.0
2022-10-19T21:24:58.456Z,66.0
2022-10-19T21:27:29.119Z,66.0
2022-10-19T21:29:59.721Z,66.0
2022-10-19T21:32:30.317Z,66.0
2022-10-19T21:35:00.891Z,66.0
2022-10-19T21:37:31.477Z,66.0
2022-10-19T21:40:12.101Z,66.0
2022-10-19T21:45:38.838Z,66.0
2022-10-19T21:47:39.375Z,67.0
2022-10-19T21:50:09.976Z,66.0
2022-10-19T21:52:40.549Z,67.0
2022-10-19T21:55:21.181Z,67.0
2022-10-19T21:57:51.799Z,67.0
2022-10-19T22:00:22.400Z,66.0
2022-10-19T22:02:52.993Z,66.0
2022-10-19T22:05:23.719Z,66.0
2022-10-19T22:07:54.311Z,66.0
2022-10-19T22:10:34.946Z,66.0
2022-10-19T22:13:05.521Z,66.0
2022-10-19T22:15:46.129Z,66.0
2022-10-19T22:18:16.722Z,66.0
2022-10-19T22:20:47.315Z,66.0
2022-10-19T22:25:58.067Z,66.0
2022-10-19T22:28:28.652Z,66.0
2022-10-19T22:30:59.240Z,66.0
2022-10-19T22:33:29.848Z,66.0
2022-10-19T22:36:00.426Z,66.0
2022-10-19T22:38:41.030Z,66.0
2022-10-19T22:41:11.610Z,66.0
2022-10-19T22:43:42.216Z,66.0
2022-10-19T22:46:12.805Z,66.0
2022-10-19T22:48:43.401Z,66.0
2022-10-19T22:51:13.990Z,66.0
2022-10-19T22:53:54.621Z,66.0
2022-10-19T22:56:25.210Z,66.0
2022-10-19T22:58:55.814Z,66.0
2022-10-19T23:01:26.534Z,66.0
2022-10-19T23:06:27.386Z,66.0
2022-10-19T23:09:08.104Z,66.0
2022-10-19T23:11:38.694Z,66.0
2022-10-19T23:14:09.286Z,66.0
2022-10-19T23:16:39.884Z,66.0
2022-10-19T23:19:10.501Z,66.0
2022-10-19T23:21:41.105Z,66.0
2022-10-19T23:24:21.708Z,66.0
2022-10-19T23:26:52.275Z,66.0
2022-10-19T23:29:22.895Z,66.0
2022-10-19T23:31:53.489Z,66.0
2022-10-19T23:34:24.139Z,66.0
2022-10-19T23:37:05.776Z,66.0
2022-10-19T23:39:36.394Z,66.0
2022-10-19T23:42:06.996Z,66.0
2022-10-19T23:47:07.725Z,66.0
2022-10-19T23:49:38.294Z,66.0
2022-10-19T23:52:18.890Z,66.0
2022-10-19T23:54:49.486Z,66.0
2022-10-19T23:57:20.073Z,66.0
2022-10-19T23:59:50.660Z,66.0
